Time;durP1;ratioP1;P1;durP2;ratioP2;P2;SDS_P1;SDS_P2;PMS_P1;PMS_P2;Temp;Humidity;BMP_temperature;BMP_pressure;BME280_temperature;BME280_humidity;BME280_pressure;Samples;Min_cycle;Max_cycle;Signal;HPM_P1;HPM_P2
2024/02/21 00:02:17;;;;;;;9.90;1.83;;;;;;;7.73;84.51;150614.38;10588654;28;20040;-75
2024/02/21 00:07:19;;;;;;;4.68;1.30;;;;;;;7.79;84.83;150629.81;10589264;28;20071;-75
2024/02/21 00:12:21;;;;;;;4.10;1.45;;;;;;;7.84;83.75;150644.00;10569639;28;20097;-76
2024/02/21 00:17:23;;;;;;;5.50;1.60;;;;;;;7.78;83.75;150628.53;10588363;28;20047;-75
2024/02/21 00:22:28;;;;;;;3.63;1.60;;;;;;;7.79;84.11;150631.13;10589086;28;20047;-74
2024/02/21 00:27:30;;;;;;;7.78;1.60;;;;;;;7.85;83.09;150645.31;10588099;28;20071;-75
2024/02/21 00:32:34;;;;;;;4.35;1.40;;;;;;;7.95;82.37;150671.06;10568966;28;20479;-75
2024/02/21 00:37:36;;;;;;;5.15;1.90;;;;;;;8.01;82.18;150685.22;10587003;28;20458;-75
2024/02/21 00:42:37;;;;;;;2.78;1.30;;;;;;;7.94;82.29;150668.50;10587835;28;20044;-75
2024/02/21 00:47:39;;;;;;;7.88;1.65;;;;;;;7.91;82.36;150659.47;10587046;28;20044;-75
2024/02/21 00:52:41;;;;;;;3.67;1.23;;;;;;;7.73;84.36;150614.38;10586483;28;20084;-75
2024/02/21 00:57:43;;;;;;;8.07;1.38;;;;;;;7.86;82.93;150646.59;10586862;28;20039;-75
2024/02/21 01:02:44;;;;;;;2.78;1.00;;;;;;;7.91;82.52;150659.47;10585571;28;20205;-74
2024/02/21 01:07:46;;;;;;;3.00;1.00;;;;;;;7.91;82.74;150659.47;10585891;28;20075;-76
2024/02/21 01:12:48;;;;;;;3.65;1.17;;;;;;;7.89;82.26;150655.59;10584916;28;20043;-74
2024/02/21 01:17:54;;;;;;;1.98;1.02;;;;;;;7.82;82.64;150638.84;10584741;28;20050;-74
2024/02/21 01:22:56;;;;;;;5.73;1.30;;;;;;;7.63;84.43;150588.63;10584608;28;20059;-75
2024/02/21 01:27:57;;;;;;;2.95;1.40;;;;;;;7.75;83.26;150619.53;10584314;28;20046;-75
2024/02/21 01:32:59;;;;;;;5.72;1.63;;;;;;;7.73;83.44;150615.66;10584384;28;20061;-74
2024/02/21 01:38:02;;;;;;;4.65;1.73;;;;;;;7.82;82.76;150638.84;10585214;28;20158;-74
2024/02/21 01:43:14;;;;;;;3.67;1.27;;;;;;;7.76;83.20;150622.13;10583906;28;20051;-75
2024/02/21 01:48:18;;;;;;;3.28;1.70;;;;;;;7.69;83.34;150605.34;10584637;28;20104;-75
2024/02/21 01:53:22;;;;;;;13.77;1.70;;;;;;;7.68;83.38;150602.78;10584722;28;20492;-74
2024/02/21 01:58:24;;;;;;;6.22;1.35;;;;;;;7.60;84.43;150582.16;10583520;28;20131;-75
2024/02/21 02:03:27;;;;;;;2.28;1.20;;;;;;;7.46;84.97;150547.38;10583095;28;20043;-76
2024/02/21 02:08:29;;;;;;;4.28;1.20;;;;;;;7.55;84.32;150570.56;10582854;28;20031;-75
2024/02/21 02:13:30;;;;;;;3.35;1.48;;;;;;;7.44;84.94;150540.97;10582555;28;20039;-75
2024/02/21 02:18:32;;;;;;;3.08;1.42;;;;;;;7.66;83.58;150596.31;10583199;28;20054;-75
2024/02/21 02:23:34;;;;;;;2.53;1.73;;;;;;;7.65;83.67;150593.75;10582795;28;20054;-74
2024/02/21 02:28:36;;;;;;;6.13;1.90;;;;;;;7.61;84.58;150583.44;10582471;28;20126;-77
2024/02/21 02:33:38;;;;;;;4.57;1.35;;;;;;;7.66;84.03;150596.31;10583734;28;20483;-75
2024/02/21 02:38:40;;;;;;;7.07;1.85;;;;;;;7.65;83.87;150595.03;10563844;28;20499;-75
2024/02/21 02:43:41;;;;;;;4.28;1.27;;;;;;;7.63;84.05;150588.63;10581661;28;20146;-75
2024/02/21 02:48:44;;;;;;;3.20;1.30;;;;;;;7.51;85.21;150558.97;10582495;28;20046;-76
2024/02/21 02:53:46;;;;;;;3.88;1.45;;;;;;;7.73;83.40;150614.38;10582601;28;20043;-76
2024/02/21 02:58:48;;;;;;;4.15;1.38;;;;;;;7.69;83.75;150604.06;10583312;28;20044;-75
2024/02/21 03:03:50;;;;;;;4.45;1.50;;;;;;;7.39;86.67;150529.34;10581726;28;20044;-74
2024/02/21 03:08:54;;;;;;;5.78;1.60;;;;;;;7.65;84.20;150593.75;10582994;28;20039;-74
2024/02/21 03:13:59;;;;;;;4.93;1.58;;;;;;;7.58;85.07;150577.03;10582452;28;20458;-75
2024/02/21 03:19:00;;;;;;;4.38;2.55;;;;;;;7.57;84.42;150575.75;10581494;28;20055;-74
2024/02/21 03:24:03;;;;;;;4.78;1.38;;;;;;;7.58;84.28;150578.31;10581861;28;20499;-75
2024/02/21 03:29:05;;;;;;;6.40;1.55;;;;;;;7.50;85.42;150557.69;10564062;28;20039;-74
2024/02/21 03:34:06;;;;;;;5.25;1.35;;;;;;;7.37;86.34;150524.19;10582169;28;20400;-75
2024/02/21 03:39:09;;;;;;;4.20;1.50;;;;;;;7.22;87.20;150485.59;10581546;28;20539;-74
2024/02/21 03:44:10;;;;;;;3.22;1.30;;;;;;;7.47;86.30;150549.94;10581664;28;20036;-74
2024/02/21 03:49:12;;;;;;;10.60;1.70;;;;;;;7.45;85.76;150544.81;10584042;28;20118;-74
2024/02/21 03:54:14;;;;;;;6.25;1.50;;;;;;;7.59;84.37;150579.59;10588768;28;20051;-74
2024/02/21 03:59:16;;;;;;;4.03;1.33;;;;;;;7.78;82.52;150627.25;10589063;28;20035;-74
2024/02/21 04:04:18;;;;;;;6.65;2.03;;;;;;;7.56;83.90;150573.13;10590699;28;20039;-74
2024/02/21 04:09:19;;;;;;;5.80;1.38;;;;;;;7.65;83.48;150593.75;10573087;28;20035;-75
2024/02/21 04:14:21;;;;;;;3.58;1.60;;;;;;;7.71;83.16;150609.25;10589935;28;20044;-74
2024/02/21 04:19:23;;;;;;;5.70;1.88;;;;;;;7.77;81.60;150625.97;10589968;28;20471;-75
2024/02/21 04:24:25;;;;;;;5.45;2.17;;;;;;;7.69;82.11;150605.34;10588755;28;20445;-74
2024/02/21 04:29:27;;;;;;;2.65;1.52;;;;;;;7.77;81.42;150624.69;10569262;28;20043;-75
2024/02/21 04:34:29;;;;;;;9.60;1.35;;;;;;;7.73;82.32;150614.38;10588768;28;20480;-75
2024/02/21 04:39:32;;;;;;;4.93;1.98;;;;;;;7.63;82.17;150589.91;10587871;28;20474;-75
2024/02/21 04:44:33;;;;;;;3.30;1.52;;;;;;;7.73;81.84;150615.66;10587830;28;20057;-75
2024/02/21 04:49:35;;;;;;;2.55;1.40;;;;;;;7.75;81.89;150620.84;10569899;28;20108;-75
2024/02/21 04:54:37;;;;;;;3.90;1.77;;;;;;;7.59;83.04;150580.88;10587156;28;20047;-74
2024/02/21 04:59:39;;;;;;;7.57;2.08;;;;;;;7.69;82.21;150604.06;10586769;28;20075;-74
2024/02/21 05:04:43;;;;;;;2.22;1.63;;;;;;;7.65;82.80;150593.75;10586893;28;20035;-75
2024/02/21 05:09:45;;;;;;;3.40;1.70;;;;;;;7.63;83.54;150588.63;10586793;28;20080;-75
2024/02/21 05:14:47;;;;;;;4.07;2.05;;;;;;;7.61;85.10;150583.44;10586556;28;20058;-74
2024/02/21 05:19:49;;;;;;;5.07;2.53;;;;;;;7.58;87.10;150578.31;10587167;28;20044;-75
2024/02/21 05:24:51;;;;;;;5.40;1.70;;;;;;;7.63;85.89;150588.63;10586694;28;20039;-74
2024/02/21 05:29:53;;;;;;;4.82;1.95;;;;;;;7.61;85.52;150584.72;10586917;28;20044;-74
2024/02/21 05:34:57;;;;;;;3.83;1.63;;;;;;;7.59;86.01;150580.88;10567619;28;20115;-75
2024/02/21 05:39:59;;;;;;;6.57;2.20;;;;;;;7.57;86.80;150575.75;10585341;28;20040;-74
2024/02/21 05:45:01;;;;;;;6.40;1.85;;;;;;;7.69;85.48;150604.06;10567963;28;20559;-76
2024/02/21 05:50:03;;;;;;;5.47;2.10;;;;;;;7.68;85.85;150601.50;10567381;28;20066;-74
2024/02/21 05:55:07;;;;;;;5.78;1.88;;;;;;;7.70;86.38;150606.63;10567746;28;20039;-74
2024/02/21 06:00:09;;;;;;;7.10;2.08;;;;;;;7.69;87.42;150604.06;10585672;28;20093;-73
2024/02/21 06:05:14;;;;;;;5.30;1.92;;;;;;;7.58;88.31;150578.31;10586890;28;20054;-75
2024/02/21 06:10:16;;;;;;;4.50;1.80;;;;;;;7.60;87.88;150582.16;10586205;28;20039;-74
2024/02/21 06:15:17;;;;;;;4.72;1.85;;;;;;;7.59;88.55;150580.88;10585809;28;20480;-75
2024/02/21 06:20:19;;;;;;;4.38;1.70;;;;;;;7.62;89.14;150587.34;10585765;28;20526;-76
2024/02/21 06:25:21;;;;;;;3.85;1.52;;;;;;;7.59;88.83;150580.88;10566703;28;20492;-75
2024/02/21 06:30:23;;;;;;;4.72;1.85;;;;;;;7.62;88.83;150586.06;10585422;28;20040;-76
2024/02/21 06:35:25;;;;;;;2.75;1.50;;;;;;;7.65;88.94;150595.03;10585404;28;20043;-75
2024/02/21 06:40:27;;;;;;;6.88;1.90;;;;;;;7.33;91.53;150515.16;10585606;28;20035;-75
2024/02/21 06:45:29;;;;;;;3.65;1.40;;;;;;;7.61;89.54;150583.44;10584434;28;20047;-75
2024/02/21 06:50:31;;;;;;;8.98;2.22;;;;;;;7.57;90.48;150574.47;10585120;28;20032;-75
2024/02/21 06:55:32;;;;;;;5.15;1.77;;;;;;;7.63;89.70;150589.91;10584178;28;20080;-75
2024/02/21 07:00:34;;;;;;;3.25;1.60;;;;;;;7.44;91.06;150542.25;10584028;28;20043;-75
2024/02/21 07:05:36;;;;;;;4.57;1.85;;;;;;;7.38;92.40;150525.47;10583281;28;20487;-75
2024/02/21 07:10:38;;;;;;;2.90;1.40;;;;;;;7.59;90.77;150580.88;10583715;28;20088;-75
2024/02/21 07:15:41;;;;;;;4.63;1.83;;;;;;;7.49;91.45;150555.13;10584601;28;20488;-75
2024/02/21 07:20:43;;;;;;;2.85;1.25;;;;;;;7.66;90.52;150596.31;10549165;28;20178;-74
2024/02/21 07:25:45;;;;;;;2.15;1.33;;;;;;;7.48;91.45;150552.56;10589067;28;20031;-74
2024/02/21 07:30:47;;;;;;;3.90;1.52;;;;;;;7.54;91.45;150568.00;10591671;28;20040;-75
2024/02/21 07:35:48;;;;;;;5.25;1.60;;;;;;;7.70;91.84;150606.63;10592997;28;20442;-74
2024/02/21 07:40:50;;;;;;;4.63;1.80;;;;;;;7.79;90.21;150629.81;10572813;28;20225;-74
2024/02/21 07:45:53;;;;;;;4.47;2.53;;;;;;;8.16;89.58;150722.63;10572661;28;20058;-74
2024/02/21 07:50:55;;;;;;;4.00;1.70;;;;;;;8.41;84.66;150787.13;10591408;28;20130;-77
2024/02/21 07:55:56;;;;;;;3.80;1.33;;;;;;;8.35;85.41;150771.59;10592990;28;20067;-76
2024/02/21 08:00:58;;;;;;;2.63;1.42;;;;;;;8.49;84.84;150807.72;10591227;28;20046;-76
2024/02/21 08:06:00;;;;;;;4.75;1.60;;;;;;;8.35;85.63;150771.59;10571870;28;20556;-77
2024/02/21 08:11:02;;;;;;;4.38;1.95;;;;;;;8.42;83.46;150788.41;10590689;28;20352;-76
2024/02/21 08:16:04;;;;;;;2.60;1.33;;;;;;;8.60;83.90;150834.81;10589762;28;20457;-75
2024/02/21 08:21:06;;;;;;;5.18;1.50;;;;;;;8.74;82.25;150870.91;10589122;28;20036;-76
2024/02/21 08:26:08;;;;;;;3.47;1.38;;;;;;;8.66;83.69;150848.97;10573818;28;20100;-77
2024/02/21 08:31:09;;;;;;;2.17;1.42;;;;;;;8.76;81.70;150876.03;10591210;28;20040;-76
2024/02/21 08:36:19;;;;;;;3.28;1.90;;;;;;;8.71;83.33;150861.88;10590730;28;20388;-76
2024/02/21 08:41:23;;;;;;;3.85;1.95;;;;;;;8.67;82.35;150851.53;10590394;28;20491;-76
2024/02/21 08:46:34;;;;;;;3.67;1.88;;;;;;;8.61;82.76;150837.38;10571809;28;20051;-76
2024/02/21 08:51:36;;;;;;;5.15;1.80;;;;;;;8.47;84.50;150802.56;10589488;28;20044;-77
2024/02/21 08:56:38;;;;;;;3.67;2.10;;;;;;;8.58;82.94;150829.63;10588785;28;20047;-77
2024/02/21 09:01:40;;;;;;;3.15;2.17;;;;;;;8.61;82.95;150836.09;10590506;28;20016;-75
2024/02/21 09:06:42;;;;;;;3.25;1.60;;;;;;;8.78;81.70;150879.94;10587680;28;20115;-76
2024/02/21 09:11:44;;;;;;;4.97;1.85;;;;;;;8.77;82.98;150877.38;10552868;28;20052;-75
2024/02/21 09:16:46;;;;;;;2.25;1.50;;;;;;;8.96;81.51;150925.06;10588085;28;20043;-76
2024/02/21 09:21:48;;;;;;;6.18;1.65;;;;;;;8.74;83.28;150870.91;10586540;28;20043;-75
2024/02/21 09:26:50;;;;;;;4.95;1.70;;;;;;;8.98;80.81;150931.47;10586980;28;20043;-74
2024/02/21 09:31:52;;;;;;;3.97;1.48;;;;;;;8.93;81.69;150918.59;10585575;28;20031;-76
2024/02/21 09:36:54;;;;;;;2.42;1.60;;;;;;;8.83;82.30;150892.81;10585260;28;20047;-74
2024/02/21 09:42:06;;;;;;;3.65;1.58;;;;;;;8.72;81.60;150865.75;10585196;28;20067;-75
2024/02/21 09:47:13;;;;;;;4.18;1.73;;;;;;;8.82;82.64;150890.25;10585552;28;20051;-75
2024/02/21 09:52:17;;;;;;;3.67;2.75;;;;;;;8.70;82.99;150859.28;10585909;28;20046;-73
2024/02/21 09:57:20;;;;;;;6.20;1.77;;;;;;;8.88;81.50;150904.44;10585356;28;20380;-74
2024/02/21 10:02:22;;;;;;;3.80;2.08;;;;;;;8.98;80.54;150931.47;10585102;28;20043;-73
2024/02/21 10:07:25;;;;;;;4.25;2.35;;;;;;;8.92;82.24;150916.03;10584922;28;20067;-73
2024/02/21 10:12:27;;;;;;;4.28;1.92;;;;;;;8.98;82.61;150931.47;10585566;28;20070;-74
2024/02/21 10:17:29;;;;;;;3.17;1.50;;;;;;;9.08;81.78;150957.31;10585738;28;20045;-74
2024/02/21 10:22:35;;;;;;;4.55;1.98;;;;;;;9.01;81.31;150939.25;10567587;28;20047;-73
2024/02/21 10:27:38;;;;;;;4.20;2.63;;;;;;;9.22;79.74;150992.13;10584704;28;20074;-74
2024/02/21 10:32:52;;;;;;;4.70;2.50;;;;;;;9.24;79.40;150995.97;10583414;28;20053;-73
2024/02/21 10:37:55;;;;;;;5.50;2.13;;;;;;;9.08;78.68;150957.31;10583789;28;20043;-73
2024/02/21 10:42:59;;;;;;;2.15;1.48;;;;;;;9.18;77.86;150980.53;10583657;28;20040;-74
2024/02/21 10:48:09;;;;;;;3.00;1.08;;;;;;;9.15;78.14;150974.06;10583058;28;20052;-74
2024/02/21 10:53:24;;;;;;;4.65;2.58;;;;;;;9.00;78.44;150935.38;10582966;28;20043;-73
2024/02/21 10:58:27;;;;;;;3.60;2.00;;;;;;;9.06;79.04;150952.13;10581995;28;20127;-73
2024/02/21 11:03:30;;;;;;;3.92;2.42;;;;;;;9.03;79.89;150943.09;10584016;28;20049;-74
2024/02/21 11:08:32;;;;;;;6.10;3.45;;;;;;;8.96;79.65;150926.34;10583730;28;20051;-73
2024/02/21 11:13:37;;;;;;;4.28;2.47;;;;;;;9.00;80.19;150936.66;10566014;28;20495;-74
2024/02/21 11:18:39;;;;;;;5.18;2.10;;;;;;;9.10;80.83;150962.44;10583492;28;20031;-73
2024/02/21 11:23:41;;;;;;;3.90;2.20;;;;;;;9.10;80.15;150961.16;10583380;28;20046;-74
2024/02/21 11:28:44;;;;;;;4.82;2.50;;;;;;;9.00;80.92;150936.66;10583861;28;20468;-73
2024/02/21 11:33:47;;;;;;;5.38;2.25;;;;;;;9.34;79.06;151023.09;10582674;28;20533;-74
2024/02/21 11:38:49;;;;;;;4.63;2.03;;;;;;;9.35;79.45;151024.38;10564698;28;20047;-73
2024/02/21 11:43:51;;;;;;;3.33;1.60;;;;;;;9.31;79.66;151015.34;10582976;28;20059;-73
2024/02/21 11:48:53;;;;;;;7.45;1.85;;;;;;;9.43;79.32;151045.03;10597210;28;20071;-77
2024/02/21 11:53:54;;;;;;;2.88;1.60;;;;;;;9.52;77.82;151068.25;10625573;28;20045;-77
2024/02/21 11:59:03;;;;;;;2.35;1.20;;;;;;;9.36;80.15;151026.94;10625692;28;20108;-76
2024/02/21 12:04:04;;;;;;;3.05;1.23;;;;;;;9.57;79.35;151081.13;10625885;28;20086;-76
2024/02/21 12:09:09;;;;;;;4.88;1.33;;;;;;;9.40;80.92;151037.28;10660511;27;20035;-77
2024/02/21 12:14:16;;;;;;;2.33;1.10;;;;;;;9.94;77.50;151172.75;10664555;27;20065;-77
2024/02/21 12:19:17;;;;;;;1.63;1.10;;;;;;;9.99;75.44;151186.94;10648366;27;20047;-76
2024/02/21 12:24:24;;;;;;;1.27;1.08;;;;;;;9.86;77.05;151153.38;10676219;27;20034;-76
2024/02/21 12:29:26;;;;;;;;;;;;;;;10.01;76.46;151192.13;10634381;27;20066;-75
2024/02/21 12:34:31;;;;;;;2.15;1.13;;;;;;;10.29;78.87;151263.16;10631280;27;20005;-77
2024/02/21 12:39:49;;;;;;;2.67;1.40;;;;;;;10.33;76.37;151272.19;10632429;27;20459;-76
2024/02/21 12:44:52;;;;;;;2.30;1.08;;;;;;;10.74;75.69;151376.75;10641090;27;20035;-76
2024/02/21 12:49:54;;;;;;;2.38;1.30;;;;;;;10.83;73.53;151398.72;10674230;27;20050;-75
2024/02/21 12:54:58;;;;;;;3.83;1.42;;;;;;;11.04;72.06;151451.69;10673468;27;20042;-75
2024/02/21 13:00:00;;;;;;;2.00;1.00;;;;;;;11.04;72.43;151452.97;10673877;27;20091;-75
2024/02/21 13:05:02;;;;;;;1.42;0.88;;;;;;;10.97;72.72;151434.88;10656368;27;20076;-76
2024/02/21 13:10:05;;;;;;;6.90;1.73;;;;;;;10.73;72.71;151374.19;10675996;27;20043;-75
2024/02/21 13:15:07;;;;;;;2.47;1.35;;;;;;;10.54;74.53;151325.13;10653211;27;20379;-76
2024/02/21 13:20:10;;;;;;;2.25;1.20;;;;;;;10.39;74.55;151287.66;10651998;27;20072;-76
2024/02/21 13:25:17;;;;;;;1.27;0.80;;;;;;;10.47;73.21;151308.31;10627679;27;20378;-75
2024/02/21 13:30:19;;;;;;;1.73;0.90;;;;;;;10.62;73.36;151345.75;10627962;27;20043;-75
2024/02/21 13:35:21;;;;;;;4.30;1.52;;;;;;;10.90;71.31;151415.53;10611384;27;20524;-74
2024/02/21 13:40:25;;;;;;;3.03;1.30;;;;;;;11.02;69.04;151446.47;10611209;27;20091;-75
2024/02/21 13:45:26;;;;;;;2.50;1.15;;;;;;;11.19;67.52;151489.13;10629866;27;20053;-75
2024/02/21 13:50:32;;;;;;;2.88;1.10;;;;;;;11.27;69.24;151509.81;10611947;27;20376;-76
2024/02/21 13:55:33;;;;;;;3.33;1.10;;;;;;;11.19;68.52;151489.13;10628298;27;20059;-76
2024/02/21 14:00:36;;;;;;;1.80;1.05;;;;;;;10.94;69.82;151427.16;10627615;27;20495;-76
2024/02/21 14:05:39;;;;;;;1.35;0.88;;;;;;;11.03;68.82;151450.41;10627845;27;20039;-76
2024/02/21 14:10:44;;;;;;;2.50;1.20;;;;;;;11.37;67.02;151535.63;10610898;27;20035;-74
2024/02/21 14:15:46;;;;;;;1.27;0.70;;;;;;;10.96;68.27;151431.00;10629186;27;20273;-76
2024/02/21 14:20:48;;;;;;;3.05;1.10;;;;;;;10.86;69.51;151406.47;10651947;27;20402;-77
2024/02/21 14:25:50;;;;;;;2.58;0.95;;;;;;;10.85;69.18;151403.91;10670281;27;20043;-75
2024/02/21 14:30:57;;;;;;;1.27;1.08;;;;;;;11.24;70.53;151503.31;10669416;27;20095;-76
2024/02/21 14:35:58;;;;;;;1.92;0.68;;;;;;;11.13;62.01;151474.91;10669263;27;20039;-76
2024/02/21 14:41:00;;;;;;;1.45;0.80;;;;;;;11.28;60.46;151513.66;10668621;27;20043;-76
2024/02/21 14:46:04;;;;;;;1.25;0.80;;;;;;;11.56;57.55;151584.75;10661402;27;20035;-76
2024/02/21 14:51:06;;;;;;;2.25;0.80;;;;;;;11.68;56.82;151614.44;10632645;27;20088;-75
2024/02/21 14:56:14;;;;;;;1.65;0.70;;;;;;;11.68;55.72;151613.16;10638566;27;20047;-76
2024/02/21 15:01:16;;;;;;;1.90;0.70;;;;;;;11.44;56.63;151553.72;10615220;27;20051;-75
2024/02/21 15:06:18;;;;;;;4.78;0.80;;;;;;;11.52;56.36;151573.13;10630155;27;20049;-76
2024/02/21 15:11:22;;;;;;;1.45;0.80;;;;;;;11.37;57.73;151536.91;10668468;27;20034;-75
2024/02/21 15:16:24;;;;;;;1.75;1.00;;;;;;;11.35;57.90;151531.75;10644060;27;20043;-75
2024/02/21 15:21:27;;;;;;;2.05;0.90;;;;;;;11.23;58.88;151499.47;10614822;27;20442;-73
2024/02/21 15:26:29;;;;;;;0.85;0.77;;;;;;;11.03;58.95;151449.09;10578227;28;20378;-76
2024/02/21 15:31:31;;;;;;;1.98;0.60;;;;;;;11.09;59.00;151465.88;10582146;28;20032;-75
2024/02/21 15:36:33;;;;;;;3.88;0.80;;;;;;;11.06;59.16;151456.81;10624723;28;20092;-75
2024/02/21 15:41:35;;;;;;;1.02;0.50;;;;;;;10.94;59.87;151427.16;10598246;28;20045;-75
2024/02/21 15:46:37;;;;;;;3.33;0.93;;;;;;;10.84;59.66;151401.28;10592483;28;20057;-75
2024/02/21 15:51:40;;;;;;;2.10;0.70;;;;;;;10.73;59.93;151372.91;10571755;28;20063;-75
2024/02/21 15:56:43;;;;;;;1.92;0.90;;;;;;;10.42;59.99;151295.44;10571801;28;20047;-75
2024/02/21 16:01:45;;;;;;;4.32;2.22;;;;;;;10.29;60.21;151261.84;10571573;28;20043;-75
2024/02/21 16:06:51;;;;;;;11.02;5.18;;;;;;;10.06;61.18;151203.75;10590295;28;20039;-74
2024/02/21 16:11:54;;;;;;;26.27;12.67;;;;;;;10.00;61.71;151189.50;10589557;28;20042;-75
2024/02/21 16:16:56;;;;;;;12.65;8.25;;;;;;;9.96;65.27;151179.22;10570067;28;20576;-75
2024/02/21 16:21:59;;;;;;;5.93;2.95;;;;;;;9.66;66.45;151103.09;10588436;28;20074;-75
2024/02/21 16:27:08;;;;;;;8.43;2.03;;;;;;;9.47;69.67;151054.03;10608099;27;20043;-75
2024/02/21 16:32:11;;;;;;;4.18;2.28;;;;;;;9.70;72.53;151112.13;10594355;27;20039;-76
2024/02/21 16:37:13;;;;;;;5.68;2.22;;;;;;;9.49;74.16;151059.22;10630814;27;20076;-75
2024/02/21 16:42:15;;;;;;;3.03;1.27;;;;;;;9.37;75.80;151029.53;10614450;27;20069;-75
2024/02/21 16:47:17;;;;;;;2.67;1.08;;;;;;;8.88;76.78;150905.72;10587179;28;20530;-75
2024/02/21 16:52:19;;;;;;;2.83;1.20;;;;;;;8.73;78.84;150867.06;10569595;28;20563;-75
2024/02/21 16:57:21;;;;;;;3.10;1.52;;;;;;;8.62;80.36;150839.94;10586414;28;20046;-76
2024/02/21 17:02:24;;;;;;;4.20;1.90;;;;;;;8.33;81.38;150767.72;10587926;28;20063;-76
2024/02/21 17:07:26;;;;;;;3.83;1.98;;;;;;;8.22;80.84;150739.34;10587970;28;20073;-76
2024/02/21 17:12:28;;;;;;;3.75;2.33;;;;;;;8.07;80.83;150700.72;10586092;28;20050;-77
2024/02/21 17:17:30;;;;;;;3.95;2.45;;;;;;;8.02;81.16;150687.84;10569620;28;20050;-77
2024/02/21 17:22:32;;;;;;;2.55;1.85;;;;;;;7.92;80.24;150662.03;10587714;28;20487;-76
2024/02/21 17:27:36;;;;;;;4.22;2.17;;;;;;;7.71;82.65;150610.53;10588459;28;20043;-76
2024/02/21 17:32:38;;;;;;;2.83;2.38;;;;;;;7.43;84.10;150539.63;10587387;28;20035;-76
2024/02/21 17:37:40;;;;;;;10.13;4.55;;;;;;;7.73;80.67;150615.66;10569360;28;20457;-76
2024/02/21 17:42:42;;;;;;;9.35;4.18;;;;;;;7.65;80.80;150593.75;10586734;28;20126;-76
2024/02/21 17:47:44;;;;;;;15.30;5.95;;;;;;;7.47;81.69;150548.66;10587440;28;20109;-76
2024/02/21 17:52:45;;;;;;;8.90;4.28;;;;;;;7.09;82.68;150453.38;10569116;28;20043;-77
2024/02/21 17:57:47;;;;;;;10.20;4.55;;;;;;;7.03;83.82;150439.19;10587086;28;20039;-76
2024/02/21 18:02:49;;;;;;;6.88;4.57;;;;;;;7.08;83.11;150450.78;10586767;28;20500;-76
2024/02/21 18:07:51;;;;;;;8.30;4.63;;;;;;;6.69;85.24;150352.97;10567394;28;20035;-77
2024/02/21 18:12:54;;;;;;;7.75;4.95;;;;;;;6.68;86.06;150349.06;10586067;28;20054;-78
2024/02/21 18:17:57;;;;;;;7.25;5.10;;;;;;;6.69;86.32;150352.97;10587162;28;20043;-76
2024/02/21 18:22:59;;;;;;;6.97;4.70;;;;;;;6.37;88.04;150271.84;10585815;28;20063;-76
2024/02/21 18:28:00;;;;;;;5.63;4.45;;;;;;;6.28;89.63;150249.97;10567349;28;20043;-76
2024/02/21 18:33:03;;;;;;;7.40;5.03;;;;;;;6.23;90.01;150237.09;10585106;28;20434;-76
2024/02/21 18:38:04;;;;;;;7.80;5.05;;;;;;;6.55;89.16;150316.88;10587037;28;20047;-74
2024/02/21 18:43:06;;;;;;;9.38;4.65;;;;;;;6.53;89.48;150313.03;10586928;28;20071;-75
2024/02/21 18:48:08;;;;;;;11.15;4.90;;;;;;;6.83;87.96;150387.72;10568850;28;20040;-74
2024/02/21 18:53:15;;;;;;;9.95;5.82;;;;;;;6.46;89.06;150293.72;10584797;28;20039;-73
2024/02/21 18:58:17;;;;;;;8.85;5.63;;;;;;;6.67;88.84;150346.50;10584985;28;20050;-73
2024/02/21 19:03:18;;;;;;;7.20;5.00;;;;;;;6.47;90.10;150296.31;10587649;28;20107;-74
2024/02/21 19:08:21;;;;;;;8.52;5.88;;;;;;;6.36;91.34;150269.28;10569722;28;20419;-74
2024/02/21 19:13:22;;;;;;;9.40;5.20;;;;;;;6.28;92.89;150249.97;10585801;28;20136;-76
2024/02/21 19:18:24;;;;;;;6.88;5.05;;;;;;;6.43;92.34;150286.03;10586120;28;20146;-75
2024/02/21 19:23:28;;;;;;;6.90;5.55;;;;;;;6.53;92.76;150313.03;10594097;28;20051;-76
2024/02/21 19:28:29;;;;;;;6.60;4.82;;;;;;;6.69;92.08;150351.69;10578789;28;20101;-76
2024/02/21 19:33:31;;;;;;;14.38;5.75;;;;;;;6.75;91.78;150367.09;10578301;28;20036;-75
2024/02/21 19:38:33;;;;;;;6.30;5.22;;;;;;;6.79;91.84;150378.69;10597184;28;20059;-77
2024/02/21 19:43:36;;;;;;;5.45;4.65;;;;;;;6.72;92.27;150359.38;10577709;28;20050;-76
2024/02/21 19:48:38;;;;;;;7.63;5.20;;;;;;;6.68;92.58;150350.34;10576856;28;20047;-75
2024/02/21 19:53:40;;;;;;;6.32;4.78;;;;;;;7.02;89.57;150435.34;10576224;28;20039;-77
2024/02/21 19:58:42;;;;;;;5.60;4.50;;;;;;;6.87;90.64;150396.75;10576731;28;20043;-77
2024/02/21 20:03:44;;;;;;;9.65;4.72;;;;;;;6.75;91.61;150367.09;10577424;28;20043;-75
2024/02/21 20:08:47;;;;;;;6.13;4.38;;;;;;;7.02;90.59;150435.34;10597314;28;20055;-77
2024/02/21 20:13:49;;;;;;;6.78;4.13;;;;;;;7.16;89.31;150471.38;10597958;28;20040;-79
2024/02/21 20:18:51;;;;;;;4.68;3.35;;;;;;;6.86;90.29;150395.41;10597119;28;20388;-77
2024/02/21 20:23:54;;;;;;;6.05;4.00;;;;;;;6.80;91.00;150379.97;10578558;28;20091;-76
2024/02/21 20:28:56;;;;;;;4.40;3.53;;;;;;;6.82;90.64;150385.16;10574928;28;20051;-76
2024/02/21 20:33:58;;;;;;;5.85;3.70;;;;;;;6.75;91.24;150368.38;10593562;28;20036;-76
2024/02/21 20:39:00;;;;;;;12.63;8.52;;;;;;;6.80;91.45;150381.25;10596355;28;20036;-77
2024/02/21 20:44:04;;;;;;;11.30;5.50;;;;;;;7.24;89.10;150490.72;10575365;28;20472;-76
2024/02/21 20:49:06;;;;;;;6.45;4.35;;;;;;;7.38;86.29;150525.47;10592798;28;20103;-76
2024/02/21 20:54:09;;;;;;;5.50;4.25;;;;;;;6.92;88.85;150410.88;10575243;28;20059;-77
2024/02/21 20:59:14;;;;;;;4.70;3.28;;;;;;;7.09;86.57;150453.38;10592883;28;20427;-76
2024/02/21 21:04:16;;;;;;;3.83;2.95;;;;;;;7.09;87.06;150453.38;10590430;28;20044;-77
2024/02/21 21:09:20;;;;;;;5.20;2.75;;;;;;;6.99;87.65;150427.59;10554362;28;20048;-76
2024/02/21 21:14:22;;;;;;;4.20;2.78;;;;;;;6.96;87.10;150421.19;10587486;28;20036;-77
2024/02/21 21:19:27;;;;;;;4.35;2.90;;;;;;;6.66;89.37;150345.22;10587859;28;20116;-76
2024/02/21 21:24:29;;;;;;;4.03;2.85;;;;;;;6.75;89.10;150368.38;10569231;28;20036;-75
2024/02/21 21:29:34;;;;;;;4.45;3.30;;;;;;;6.70;90.03;150355.53;10568735;28;20075;-75
2024/02/21 21:34:36;;;;;;;5.57;2.97;;;;;;;6.85;89.19;150391.56;10568490;28;20043;-75
2024/02/21 21:39:39;;;;;;;5.38;3.28;;;;;;;6.96;90.00;150419.91;10567524;28;20044;-75
2024/02/21 21:44:41;;;;;;;5.88;3.22;;;;;;;7.02;89.48;150436.63;10584066;28;20040;-75
2024/02/21 21:49:43;;;;;;;3.25;2.35;;;;;;;6.95;87.61;150418.63;10566945;28;20040;-77
2024/02/21 21:54:45;;;;;;;4.72;3.00;;;;;;;7.01;86.93;150434.06;10584929;28;20040;-76
2024/02/21 21:59:47;;;;;;;5.95;2.65;;;;;;;6.71;88.40;150358.09;10585117;28;20107;-76
2024/02/21 22:04:48;;;;;;;4.20;3.13;;;;;;;6.44;90.70;150289.88;10565725;28;20138;-76
2024/02/21 22:09:50;;;;;;;4.40;2.75;;;;;;;6.64;89.96;150340.09;10584590;28;20047;-75
2024/02/21 22:14:52;;;;;;;4.88;2.22;;;;;;;6.86;86.91;150395.41;10583432;28;20040;-75
2024/02/21 22:19:54;;;;;;;4.07;2.90;;;;;;;6.83;87.01;150387.72;10583435;28;20118;-76
2024/02/21 22:24:56;;;;;;;3.72;2.55;;;;;;;6.60;89.12;150329.78;10582804;28;20050;-76
2024/02/21 22:29:57;;;;;;;3.67;2.30;;;;;;;6.71;89.09;150356.81;10582756;28;20082;-76
2024/02/21 22:34:59;;;;;;;4.32;3.05;;;;;;;6.72;89.03;150360.66;10564467;28;20071;-76
2024/02/21 22:40:02;;;;;;;2.47;1.70;;;;;;;6.65;88.82;150341.38;10565426;28;20462;-77
2024/02/21 22:45:04;;;;;;;2.42;1.40;;;;;;;6.63;86.95;150337.47;10582379;28;20411;-76
2024/02/21 22:50:07;;;;;;;3.60;2.28;;;;;;;6.72;85.99;150359.38;10582110;28;20058;-76
2024/02/21 22:55:09;;;;;;;0.95;0.57;;;;;;;7.25;70.38;150494.56;10582508;28;20096;-76
2024/02/21 23:00:15;;;;;;;2.55;0.60;;;;;;;7.82;62.33;150637.56;10582066;28;20135;-76
2024/02/21 23:05:17;;;;;;;0.30;0.20;;;;;;;8.84;54.78;150896.69;10582104;28;20134;-76
2024/02/21 23:10:23;;;;;;;0.35;0.30;;;;;;;9.57;49.78;151081.13;10583862;28;20054;-77
2024/02/21 23:15:25;;;;;;;0.45;0.30;;;;;;;9.96;49.13;151179.22;10567038;28;20050;-77
2024/02/21 23:20:28;;;;;;;0.28;0.20;;;;;;;10.15;50.02;151225.69;10582858;28;20059;-75
2024/02/21 23:25:30;;;;;;;1.13;0.32;;;;;;;10.22;49.92;151243.72;10582107;28;20042;-75